Time;durP1;ratioP1;P1;durP2;ratioP2;P2;SDS_P1;SDS_P2;PMS_P1;PMS_P2;Temp;Humidity;BMP_temperature;BMP_pressure;BME280_temperature;BME280_humidity;BME280_pressure;Samples;Min_cycle;Max_cycle;Signal;HPM_P1;HPM_P2
2021/03/05 00:01:20;;;;;;;58.13;33.72;;;;;;;;;;5095332;28;20103;-66
2021/03/05 00:03:47;;;;;;;55.85;35.45;;;;;;;;;;5096662;28;20024;-66
2021/03/05 00:06:13;;;;;;;57.88;35.22;;;;;;;;;;5096426;28;20059;-66
2021/03/05 00:08:39;;;;;;;52.30;34.50;;;;;;;;;;5096642;28;20055;-66
2021/03/05 00:11:06;;;;;;;57.58;35.97;;;;;;;;;;5096299;28;20028;-66
2021/03/05 00:13:32;;;;;;;53.20;34.83;;;;;;;;;;5096214;28;20107;-66
2021/03/05 00:15:58;;;;;;;52.08;34.13;;;;;;;;;;5096296;28;20020;-66
2021/03/05 00:18:24;;;;;;;49.97;32.80;;;;;;;;;;5096104;28;20036;-66
2021/03/05 00:20:52;;;;;;;49.67;32.75;;;;;;;;;;5096260;28;20099;-66
2021/03/05 00:23:20;;;;;;;56.17;34.78;;;;;;;;;;5094777;28;20040;-66
2021/03/05 00:25:46;;;;;;;53.25;33.65;;;;;;;;;;5096455;28;20035;-66
2021/03/05 00:28:12;;;;;;;51.67;32.70;;;;;;;;;;5096086;28;20032;-66
2021/03/05 00:30:38;;;;;;;53.90;32.15;;;;;;;;;;5095838;28;20040;-66
2021/03/05 00:33:05;;;;;;;50.30;33.42;;;;;;;;;;5096202;28;20036;-66
2021/03/05 00:35:32;;;;;;;56.80;33.90;;;;;;;;;;5095923;28;20024;-66
2021/03/05 00:37:58;;;;;;;47.58;32.67;;;;;;;;;;5094835;28;20036;-66
2021/03/05 00:40:24;;;;;;;52.40;31.85;;;;;;;;;;5096015;28;20031;-66
2021/03/05 00:42:51;;;;;;;53.90;33.50;;;;;;;;;;5095759;28;20078;-66
2021/03/05 00:45:19;;;;;;;53.08;34.08;;;;;;;;;;5095838;28;20024;-66
2021/03/05 00:47:45;;;;;;;50.00;32.08;;;;;;;;;;5095807;28;20032;-66
2021/03/05 00:50:12;;;;;;;48.53;33.60;;;;;;;;;;5095551;28;20039;-66
2021/03/05 00:52:38;;;;;;;48.97;31.75;;;;;;;;;;5095531;28;20020;-66
2021/03/05 00:55:07;;;;;;;46.95;31.33;;;;;;;;;;5095485;28;20024;-66
2021/03/05 00:57:34;;;;;;;53.10;33.15;;;;;;;;;;5095379;28;20093;-66
2021/03/05 01:00:00;;;;;;;53.13;33.10;;;;;;;;;;5095685;28;20068;-66
2021/03/05 01:02:26;;;;;;;52.55;33.83;;;;;;;;;;5095430;28;20060;-66
2021/03/05 01:04:52;;;;;;;52.28;31.70;;;;;;;;;;5095256;28;20028;-66
2021/03/05 01:07:18;;;;;;;49.53;31.77;;;;;;;;;;5095293;28;20032;-66
2021/03/05 01:09:45;;;;;;;48.60;31.75;;;;;;;;;;5093928;28;20020;-66
2021/03/05 01:12:11;;;;;;;48.85;32.08;;;;;;;;;;5095219;28;20028;-66
2021/03/05 01:14:37;;;;;;;56.20;32.35;;;;;;;;;;5095131;28;20110;-66
2021/03/05 01:17:04;;;;;;;51.88;32.92;;;;;;;;;;5095182;28;20101;-66
2021/03/05 01:19:30;;;;;;;52.25;34.03;;;;;;;;;;5094994;28;20522;-66
2021/03/05 01:21:56;;;;;;;49.88;32.17;;;;;;;;;;5095056;28;20051;-66
2021/03/05 01:24:23;;;;;;;56.63;33.42;;;;;;;;;;5095137;28;20050;-66
2021/03/05 01:26:49;;;;;;;52.45;33.97;;;;;;;;;;5095208;28;20099;-66
2021/03/05 01:29:15;;;;;;;52.13;33.33;;;;;;;;;;5094828;28;20044;-66
2021/03/05 01:31:41;;;;;;;49.42;31.70;;;;;;;;;;5095039;28;20050;-66
2021/03/05 01:34:08;;;;;;;52.78;32.78;;;;;;;;;;5094871;28;20028;-66
2021/03/05 01:36:34;;;;;;;51.42;33.20;;;;;;;;;;5094981;28;20059;-67
2021/03/05 01:39:00;;;;;;;51.53;31.98;;;;;;;;;;5094678;28;20024;-66
2021/03/05 01:41:27;;;;;;;50.13;32.67;;;;;;;;;;5094887;28;20380;-67
2021/03/05 01:43:53;;;;;;;47.13;31.15;;;;;;;;;;5094573;28;20039;-66
2021/03/05 01:46:20;;;;;;;53.33;31.83;;;;;;;;;;5093255;28;20036;-66
2021/03/05 01:48:46;;;;;;;50.63;31.88;;;;;;;;;;5094308;28;20028;-66
2021/03/05 01:51:17;;;;;;;54.92;33.30;;;;;;;;;;5094802;28;20032;-66
2021/03/05 01:53:44;;;;;;;47.72;31.60;;;;;;;;;;5094439;28;20481;-66
2021/03/05 01:56:20;;;;;;;47.90;32.13;;;;;;;;;;5094381;28;20545;-66
2021/03/05 01:58:46;;;;;;;51.22;33.00;;;;;;;;;;5094584;28;20485;-66
2021/03/05 02:01:12;;;;;;;52.50;33.63;;;;;;;;;;5094566;28;20054;-66
2021/03/05 02:03:38;;;;;;;50.88;32.75;;;;;;;;;;5094414;28;20109;-66
2021/03/05 02:06:05;;;;;;;47.95;31.35;;;;;;;;;;5094436;28;20384;-66
2021/03/05 02:08:31;;;;;;;48.90;31.88;;;;;;;;;;5094161;28;20524;-66
2021/03/05 02:10:57;;;;;;;52.03;32.58;;;;;;;;;;5094343;28;20032;-66
2021/03/05 02:13:24;;;;;;;52.65;32.67;;;;;;;;;;5094367;28;20051;-66
2021/03/05 02:15:50;;;;;;;52.47;33.47;;;;;;;;;;5094151;28;20020;-66
2021/03/05 02:18:23;;;;;;;51.13;32.13;;;;;;;;;;5094168;28;20426;-66
2021/03/05 02:21:08;;;;;;;50.42;32.55;;;;;;;;;;5093897;28;20024;-66
2021/03/05 02:23:37;;;;;;;50.10;31.80;;;;;;;;;;5094142;28;20441;-66
2021/03/05 02:26:22;;;;;;;46.78;33.13;;;;;;;;;;5093731;28;20028;-66
2021/03/05 02:28:57;;;;;;;46.55;32.63;;;;;;;;;;5093644;28;20059;-66
2021/03/05 02:31:42;;;;;;;48.15;31.45;;;;;;;;;;5093714;28;20035;-66
2021/03/05 02:34:13;;;;;;;51.20;32.15;;;;;;;;;;5093721;28;20063;-66
2021/03/05 02:36:45;;;;;;;47.70;31.00;;;;;;;;;;5094037;28;20078;-66
2021/03/05 02:39:14;;;;;;;52.97;32.72;;;;;;;;;;5093662;28;20030;-66
2021/03/05 02:41:41;;;;;;;47.83;30.95;;;;;;;;;;5093575;28;20051;-65
2021/03/05 02:44:09;;;;;;;48.90;31.58;;;;;;;;;;5093766;28;20447;-66
2021/03/05 02:46:36;;;;;;;46.97;31.50;;;;;;;;;;5093398;28;20028;-66
2021/03/05 02:49:03;;;;;;;48.08;30.88;;;;;;;;;;5093604;28;20024;-66
2021/03/05 02:51:32;;;;;;;53.15;31.90;;;;;;;;;;5093276;28;20024;-66
2021/03/05 02:54:00;;;;;;;45.20;29.95;;;;;;;;;;5093459;28;20020;-66
2021/03/05 02:56:28;;;;;;;43.85;30.50;;;;;;;;;;5093221;28;20028;-66
2021/03/05 02:58:55;;;;;;;52.42;30.60;;;;;;;;;;5093716;28;20020;-66
2021/03/05 03:01:24;;;;;;;52.72;32.63;;;;;;;;;;5093078;28;20032;-66
2021/03/05 03:03:51;;;;;;;51.80;31.33;;;;;;;;;;5093357;28;20024;-66
2021/03/05 03:06:17;;;;;;;47.13;30.08;;;;;;;;;;5093610;28;20028;-67
2021/03/05 03:08:44;;;;;;;50.22;30.45;;;;;;;;;;5093299;28;20047;-66
2021/03/05 03:11:11;;;;;;;49.80;31.00;;;;;;;;;;5093261;28;20032;-66
2021/03/05 03:13:37;;;;;;;54.22;31.52;;;;;;;;;;5093276;28;20026;-66
2021/03/05 03:16:04;;;;;;;48.78;30.63;;;;;;;;;;5093120;28;20024;-66
2021/03/05 03:18:31;;;;;;;51.40;30.20;;;;;;;;;;5091918;28;20028;-66
2021/03/05 03:20:58;;;;;;;49.58;30.15;;;;;;;;;;5093315;28;20482;-66
2021/03/05 03:23:25;;;;;;;48.25;30.17;;;;;;;;;;5093457;28;20028;-66
2021/03/05 03:25:51;;;;;;;47.58;30.75;;;;;;;;;;5093271;28;20025;-66
2021/03/05 03:28:17;;;;;;;50.38;31.15;;;;;;;;;;5093223;28;20081;-60
2021/03/05 03:30:44;;;;;;;49.38;29.42;;;;;;;;;;5093369;28;20067;-63
2021/03/05 03:33:10;;;;;;;45.13;31.00;;;;;;;;;;5093384;28;20028;-63
2021/03/05 03:35:36;;;;;;;48.10;30.60;;;;;;;;;;5093060;28;20392;-63
2021/03/05 03:38:03;;;;;;;51.22;32.45;;;;;;;;;;5092933;28;20065;-63
2021/03/05 03:40:29;;;;;;;45.15;30.83;;;;;;;;;;5092973;28;20058;-62
2021/03/05 03:42:56;;;;;;;49.42;32.38;;;;;;;;;;5092943;28;20035;-63
2021/03/05 03:45:23;;;;;;;50.15;32.47;;;;;;;;;;5093141;28;20031;-62
2021/03/05 03:47:50;;;;;;;47.35;30.05;;;;;;;;;;5092917;28;20031;-62
2021/03/05 03:50:28;;;;;;;50.58;31.50;;;;;;;;;;5092999;28;20103;-63
2021/03/05 03:52:55;;;;;;;51.22;31.98;;;;;;;;;;5093078;28;20032;-63
2021/03/05 03:55:21;;;;;;;48.40;32.08;;;;;;;;;;5092952;28;20028;-63
2021/03/05 03:57:49;;;;;;;47.13;29.95;;;;;;;;;;5092551;28;20565;-63
2021/03/05 04:00:17;;;;;;;50.63;31.25;;;;;;;;;;5093096;28;20056;-63
2021/03/05 04:02:47;;;;;;;48.80;30.92;;;;;;;;;;5092600;28;20404;-63
2021/03/05 04:05:16;;;;;;;49.53;30.45;;;;;;;;;;5092723;28;20024;-62
2021/03/05 04:07:43;;;;;;;47.08;30.50;;;;;;;;;;5092938;28;20111;-62
2021/03/05 04:10:10;;;;;;;48.83;30.90;;;;;;;;;;5092848;28;20089;-63
2021/03/05 04:12:37;;;;;;;50.10;30.73;;;;;;;;;;5094147;28;20028;-62
2021/03/05 04:15:04;;;;;;;51.92;30.90;;;;;;;;;;5095246;28;20070;-62
2021/03/05 04:17:30;;;;;;;56.92;32.10;;;;;;;;;;5096445;28;20043;-62
2021/03/05 04:19:56;;;;;;;52.97;30.83;;;;;;;;;;5096149;28;20024;-62
2021/03/05 04:22:23;;;;;;;46.70;30.05;;;;;;;;;;5096004;28;20048;-62
2021/03/05 04:24:50;;;;;;;49.28;30.67;;;;;;;;;;5096401;28;20107;-62
2021/03/05 04:27:16;;;;;;;49.15;30.00;;;;;;;;;;5095967;28;20476;-62
2021/03/05 04:29:42;;;;;;;46.58;29.70;;;;;;;;;;5095890;28;20045;-62
2021/03/05 04:32:08;;;;;;;43.80;30.02;;;;;;;;;;5095957;28;20449;-62
2021/03/05 04:34:34;;;;;;;49.80;30.65;;;;;;;;;;5095932;28;20500;-62
2021/03/05 04:37:00;;;;;;;46.28;29.85;;;;;;;;;;5096300;28;20115;-62
2021/03/05 04:39:27;;;;;;;52.25;31.60;;;;;;;;;;5095842;28;20035;-62
2021/03/05 04:41:53;;;;;;;48.70;31.20;;;;;;;;;;5095713;28;20192;-62
2021/03/05 04:44:19;;;;;;;51.53;30.80;;;;;;;;;;5095969;28;20028;-62
2021/03/05 04:46:46;;;;;;;47.20;30.50;;;;;;;;;;5095885;28;20466;-62
2021/03/05 04:49:12;;;;;;;49.00;28.75;;;;;;;;;;5095863;28;20050;-63
2021/03/05 04:51:38;;;;;;;49.53;30.55;;;;;;;;;;5095869;28;20121;-63
2021/03/05 04:54:04;;;;;;;45.53;29.45;;;;;;;;;;5095440;28;20035;-63
2021/03/05 04:56:30;;;;;;;47.85;29.80;;;;;;;;;;5095653;28;20020;-62
2021/03/05 04:58:56;;;;;;;41.97;29.38;;;;;;;;;;5095468;28;20378;-63
2021/03/05 05:01:22;;;;;;;53.42;29.80;;;;;;;;;;5095427;28;20475;-63
2021/03/05 05:03:49;;;;;;;51.20;30.52;;;;;;;;;;5094317;28;20110;-63
2021/03/05 05:06:15;;;;;;;49.60;30.67;;;;;;;;;;5093488;28;20470;-63
2021/03/05 05:08:41;;;;;;;51.17;30.83;;;;;;;;;;5093441;28;20020;-63
2021/03/05 05:11:07;;;;;;;50.70;31.13;;;;;;;;;;5095173;28;20081;-63
2021/03/05 05:13:33;;;;;;;48.75;30.30;;;;;;;;;;5095102;28;20027;-63
2021/03/05 05:15:59;;;;;;;48.75;31.38;;;;;;;;;;5094989;28;20028;-63
2021/03/05 05:18:25;;;;;;;49.58;30.50;;;;;;;;;;5094850;28;20057;-63
2021/03/05 05:20:52;;;;;;;48.45;29.88;;;;;;;;;;5095319;28;20020;-62
2021/03/05 05:23:18;;;;;;;43.85;29.02;;;;;;;;;;5094394;28;20468;-62
2021/03/05 05:25:44;;;;;;;55.38;29.60;;;;;;;;;;5095218;28;20031;-62
2021/03/05 05:28:10;;;;;;;54.17;30.58;;;;;;;;;;5095087;28;20380;-63
2021/03/05 05:30:37;;;;;;;51.42;30.25;;;;;;;;;;5094799;28;20378;-62
2021/03/05 05:33:03;;;;;;;48.00;29.80;;;;;;;;;;5094593;28;20120;-63
2021/03/05 05:35:29;;;;;;;46.45;30.42;;;;;;;;;;5094750;28;20106;-63
2021/03/05 05:37:55;;;;;;;51.47;29.58;;;;;;;;;;5094641;28;20028;-63
2021/03/05 05:40:21;;;;;;;48.92;30.35;;;;;;;;;;5094923;28;20388;-62
2021/03/05 05:42:51;;;;;;;50.25;30.02;;;;;;;;;;5094811;28;20028;-63
2021/03/05 05:45:17;;;;;;;49.20;29.33;;;;;;;;;;5094651;28;20020;-63
2021/03/05 05:47:44;;;;;;;51.03;31.13;;;;;;;;;;5094658;28;20024;-62
2021/03/05 05:50:10;;;;;;;56.25;30.88;;;;;;;;;;5094513;28;20460;-62
2021/03/05 05:52:37;;;;;;;52.63;30.33;;;;;;;;;;5094651;28;20035;-62
2021/03/05 05:55:04;;;;;;;53.65;29.60;;;;;;;;;;5094746;28;20504;-62
2021/03/05 05:57:31;;;;;;;49.38;30.15;;;;;;;;;;5094269;28;20036;-62
2021/03/05 05:59:58;;;;;;;48.67;31.00;;;;;;;;;;5094338;28;20027;-63
2021/03/05 06:02:24;;;;;;;48.92;32.47;;;;;;;;;;5092999;28;20024;-62
2021/03/05 06:04:57;;;;;;;48.10;31.35;;;;;;;;;;5094164;28;20030;-62
2021/03/05 06:07:24;;;;;;;45.55;30.27;;;;;;;;;;5094146;28;20042;-62
2021/03/05 06:09:50;;;;;;;51.53;30.05;;;;;;;;;;5094047;28;20350;-62
2021/03/05 06:12:17;;;;;;;43.53;30.08;;;;;;;;;;5093957;28;20118;-62
2021/03/05 06:14:43;;;;;;;41.08;28.42;;;;;;;;;;5094126;28;20024;-62
2021/03/05 06:17:10;;;;;;;61.08;42.53;;;;;;;;;;5093747;28;20035;-62
2021/03/05 06:19:36;;;;;;;83.47;55.38;;;;;;;;;;5093876;28;20178;-62
2021/03/05 06:22:04;;;;;;;55.35;36.70;;;;;;;;;;5093746;28;20038;-62
2021/03/05 06:24:42;;;;;;;51.33;31.63;;;;;;;;;;5094080;28;20411;-62
2021/03/05 06:27:09;;;;;;;50.05;30.90;;;;;;;;;;5093711;28;20027;-62
2021/03/05 06:29:45;;;;;;;49.25;31.25;;;;;;;;;;5093512;28;20130;-62
2021/03/05 06:32:12;;;;;;;57.25;33.30;;;;;;;;;;5092316;28;20031;-62
2021/03/05 06:34:47;;;;;;;52.28;32.15;;;;;;;;;;5092896;28;20032;-63
2021/03/05 06:37:14;;;;;;;47.63;30.75;;;;;;;;;;5093642;28;20038;-62
2021/03/05 06:39:41;;;;;;;52.22;31.60;;;;;;;;;;5093590;28;20020;-63
2021/03/05 06:42:10;;;;;;;49.80;31.35;;;;;;;;;;5093577;28;20058;-62
2021/03/05 06:44:37;;;;;;;47.03;29.65;;;;;;;;;;5093221;28;20031;-62
2021/03/05 06:47:19;;;;;;;54.25;31.00;;;;;;;;;;5093238;28;20434;-61
2021/03/05 06:49:46;;;;;;;57.00;31.92;;;;;;;;;;5093501;28;20436;-63
2021/03/05 06:52:13;;;;;;;54.13;31.63;;;;;;;;;;5093361;28;20054;-62
2021/03/05 06:54:41;;;;;;;47.75;30.77;;;;;;;;;;5093236;28;20020;-63
2021/03/05 06:57:08;;;;;;;50.65;32.33;;;;;;;;;;5092394;28;20377;-63
2021/03/05 06:59:36;;;;;;;49.10;30.85;;;;;;;;;;5093268;28;20396;-63
2021/03/05 07:02:03;;;;;;;59.00;36.75;;;;;;;;;;5093248;28;20032;-63
2021/03/05 07:04:30;;;;;;;52.45;32.90;;;;;;;;;;5093407;28;20361;-63
2021/03/05 07:06:57;;;;;;;48.72;32.20;;;;;;;;;;5093173;28;20524;-63
2021/03/05 07:09:25;;;;;;;57.80;32.08;;;;;;;;;;5093341;28;20028;-62
2021/03/05 07:11:53;;;;;;;49.35;31.45;;;;;;;;;;5093150;28;20500;-65
2021/03/05 07:14:19;;;;;;;48.80;30.52;;;;;;;;;;5093108;28;20032;-65
2021/03/05 07:16:47;;;;;;;47.75;30.95;;;;;;;;;;5093138;28;20430;-65
2021/03/05 07:19:14;;;;;;;46.72;31.27;;;;;;;;;;5092915;28;20036;-62
2021/03/05 07:21:41;;;;;;;50.50;31.60;;;;;;;;;;5093222;28;20024;-63
2021/03/05 07:24:08;;;;;;;49.55;31.83;;;;;;;;;;5091566;28;20047;-62
2021/03/05 07:26:36;;;;;;;45.83;30.77;;;;;;;;;;5093107;28;20035;-63
2021/03/05 07:29:03;;;;;;;45.97;29.98;;;;;;;;;;5081952;28;20044;-62
2021/03/05 07:31:30;;;;;;;54.05;30.63;;;;;;;;;;5080047;28;20066;-62
2021/03/05 07:34:00;;;;;;;45.17;28.77;;;;;;;;;;5093074;28;20381;-63
2021/03/05 07:36:30;;;;;;;48.40;28.35;;;;;;;;;;5092719;28;20376;-62
2021/03/05 07:39:02;;;;;;;54.97;33.63;;;;;;;;;;5084264;28;20029;-62
2021/03/05 07:41:29;;;;;;;56.33;34.70;;;;;;;;;;5071148;28;20095;-62
2021/03/05 07:43:55;;;;;;;48.17;29.63;;;;;;;;;;5078538;28;20107;-61
2021/03/05 07:46:21;;;;;;;51.35;30.98;;;;;;;;;;5079956;28;20025;-63
2021/03/05 07:48:49;;;;;;;54.83;31.55;;;;;;;;;;5087612;28;20035;-62
2021/03/05 07:51:15;;;;;;;44.42;30.58;;;;;;;;;;5091702;28;20056;-61
2021/03/05 07:53:51;;;;;;;47.10;29.77;;;;;;;;;;5085615;28;20055;-62
2021/03/05 07:56:36;;;;;;;75.00;39.15;;;;;;;;;;5082474;28;20112;-62
2021/03/05 07:59:02;;;;;;;106.43;49.25;;;;;;;;;;5088546;28;20058;-63
2021/03/05 08:01:47;;;;;;;63.28;36.90;;;;;;;;;;5096531;28;20048;-62
2021/03/05 08:04:13;;;;;;;57.40;31.52;;;;;;;;;;5096371;28;20024;-63
2021/03/05 08:06:40;;;;;;;50.53;29.73;;;;;;;;;;5086031;28;20028;-62
2021/03/05 08:09:15;;;;;;;52.42;30.63;;;;;;;;;;5096463;28;20051;-62
2021/03/05 08:11:42;;;;;;;50.20;30.30;;;;;;;;;;5096293;28;20032;-62
2021/03/05 08:14:20;;;;;;;56.13;31.30;;;;;;;;;;5055904;28;20377;-62
2021/03/05 08:16:47;;;;;;;50.05;31.52;;;;;;;;;;5056247;28;20052;-62
2021/03/05 08:19:15;;;;;;;54.97;32.45;;;;;;;;;;5086046;28;20507;-64
2021/03/05 08:21:56;;;;;;;46.47;29.10;;;;;;;;;;5094747;28;20028;-63
2021/03/05 08:24:22;;;;;;;63.85;33.92;;;;;;;;;;5077516;28;20024;-63
2021/03/05 08:27:05;;;;;;;64.60;37.33;;;;;;;;;;5096142;28;20036;-63
2021/03/05 08:29:50;;;;;;;57.58;34.67;;;;;;;;;;5095744;28;20082;-63
2021/03/05 08:32:34;;;;;;;58.70;34.00;;;;;;;;;;5094217;28;20028;-62
2021/03/05 08:35:01;;;;;;;56.13;33.95;;;;;;;;;;5092580;28;20524;-63
2021/03/05 08:37:28;;;;;;;61.10;34.70;;;;;;;;;;5075346;28;20040;-63
2021/03/05 08:40:16;;;;;;;66.07;39.53;;;;;;;;;;5086405;28;20024;-63
2021/03/05 08:42:43;;;;;;;63.58;34.35;;;;;;;;;;5055340;28;20099;-62
2021/03/05 08:45:13;;;;;;;51.53;33.00;;;;;;;;;;5069465;28;20056;-63
2021/03/05 08:47:40;;;;;;;62.67;32.92;;;;;;;;;;5075869;28;20024;-63
2021/03/05 08:50:07;;;;;;;69.43;32.80;;;;;;;;;;5075179;28;20115;-63
2021/03/05 08:52:33;;;;;;;78.95;41.22;;;;;;;;;;5075191;28;20035;-63
2021/03/05 08:55:03;;;;;;;128.13;57.03;;;;;;;;;;5075652;28;20024;-64
2021/03/05 08:57:37;;;;;;;177.38;65.93;;;;;;;;;;5074859;28;20043;-63
2021/03/05 09:00:04;;;;;;;71.55;29.05;;;;;;;;;;5075437;28;20013;-63
2021/03/05 09:02:30;;;;;;;59.97;27.55;;;;;;;;;;5075239;28;20384;-63
2021/03/05 09:04:56;;;;;;;48.08;25.30;;;;;;;;;;5075427;28;20024;-63
2021/03/05 09:07:22;;;;;;;59.83;24.67;;;;;;;;;;5075048;28;20037;-64
2021/03/05 09:09:51;;;;;;;45.92;22.00;;;;;;;;;;5075140;28;20046;-64
2021/03/05 09:12:21;;;;;;;69.15;23.70;;;;;;;;;;5075221;28;20032;-63
2021/03/05 09:14:47;;;;;;;54.58;21.77;;;;;;;;;;5074908;28;20370;-62
2021/03/05 09:17:14;;;;;;;61.13;22.42;;;;;;;;;;5076540;28;20123;-64
2021/03/05 09:19:42;;;;;;;55.05;21.58;;;;;;;;;;5082764;28;20028;-63
2021/03/05 09:22:08;;;;;;;48.13;21.08;;;;;;;;;;5074377;28;20035;-62
2021/03/05 09:24:49;;;;;;;41.47;21.77;;;;;;;;;;5074608;28;20028;-64
2021/03/05 09:27:17;;;;;;;44.13;23.48;;;;;;;;;;5091086;28;20016;-59
2021/03/05 09:29:43;;;;;;;40.83;20.20;;;;;;;;;;5094706;28;20129;-63
2021/03/05 09:32:09;;;;;;;49.60;21.42;;;;;;;;;;5094618;28;20038;-63
2021/03/05 09:34:47;;;;;;;39.05;20.10;;;;;;;;;;5094555;28;20056;-64
2021/03/05 09:37:19;;;;;;;58.45;21.10;;;;;;;;;;5088981;28;20071;-64
2021/03/05 09:39:46;;;;;;;45.85;20.30;;;;;;;;;;5086859;28;20108;-64
2021/03/05 09:42:12;;;;;;;49.80;20.65;;;;;;;;;;5094419;28;20380;-64
2021/03/05 09:44:42;;;;;;;46.72;20.23;;;;;;;;;;5094520;28;20034;-65
2021/03/05 09:47:08;;;;;;;44.38;20.58;;;;;;;;;;5086650;28;20090;-64
2021/03/05 09:49:34;;;;;;;45.60;19.90;;;;;;;;;;5074030;28;20031;-65
2021/03/05 09:52:01;;;;;;;39.05;18.92;;;;;;;;;;5074228;28;20028;-64
2021/03/05 09:54:54;;;;;;;46.97;18.67;;;;;;;;;;5074394;28;20021;-64
2021/03/05 09:57:23;;;;;;;38.22;16.83;;;;;;;;;;5073634;28;20048;-64
2021/03/05 09:59:49;;;;;;;45.85;18.60;;;;;;;;;;5073945;28;20029;-64
2021/03/05 10:02:23;;;;;;;27.83;16.88;;;;;;;;;;5073969;28;20062;-64
2021/03/05 10:04:50;;;;;;;35.33;18.92;;;;;;;;;;5080317;28;20075;-63
2021/03/05 10:07:17;;;;;;;36.25;19.05;;;;;;;;;;5093647;28;20028;-64
2021/03/05 10:09:44;;;;;;;39.97;19.60;;;;;;;;;;5079315;28;20024;-64
2021/03/05 10:12:10;;;;;;;30.88;20.67;;;;;;;;;;5075341;28;20086;-64
2021/03/05 10:14:36;;;;;;;34.38;20.52;;;;;;;;;;5094010;28;20035;-64
2021/03/05 10:17:21;;;;;;;44.17;20.13;;;;;;;;;;5093965;28;20036;-64
2021/03/05 10:19:47;;;;;;;43.05;18.95;;;;;;;;;;5053864;28;20047;-64
2021/03/05 10:22:13;;;;;;;36.67;21.70;;;;;;;;;;5053664;28;20029;-64
2021/03/05 10:24:44;;;;;;;42.10;24.23;;;;;;;;;;5053802;28;20033;-63
2021/03/05 10:27:11;;;;;;;41.58;24.20;;;;;;;;;;5053538;28;20033;-64
2021/03/05 10:29:41;;;;;;;44.40;22.90;;;;;;;;;;5053492;28;20136;-64
2021/03/05 10:32:27;;;;;;;38.55;23.92;;;;;;;;;;5053374;28;20143;-64
2021/03/05 10:34:57;;;;;;;73.97;26.73;;;;;;;;;;5053416;28;20504;-65
2021/03/05 10:37:23;;;;;;;40.53;23.65;;;;;;;;;;5082036;28;20123;-65
2021/03/05 10:39:50;;;;;;;37.88;24.08;;;;;;;;;;5093636;28;20024;-64
2021/03/05 10:42:18;;;;;;;42.42;25.80;;;;;;;;;;5093422;28;20064;-64
2021/03/05 10:44:45;;;;;;;36.90;26.38;;;;;;;;;;5093539;28;20103;-64
2021/03/05 10:47:12;;;;;;;46.78;28.58;;;;;;;;;;5093810;28;20114;-64
2021/03/05 10:49:38;;;;;;;43.70;27.88;;;;;;;;;;5093584;28;20110;-64
2021/03/05 10:52:07;;;;;;;76.72;29.98;;;;;;;;;;5084290;28;20025;-64
2021/03/05 10:54:33;;;;;;;50.00;28.20;;;;;;;;;;5067065;28;20029;-64
2021/03/05 10:56:59;;;;;;;43.65;29.02;;;;;;;;;;5071157;28;20111;-64
2021/03/05 10:59:26;;;;;;;46.88;28.73;;;;;;;;;;5070815;28;20036;-64
2021/03/05 11:01:53;;;;;;;43.55;29.95;;;;;;;;;;5071635;28;20032;-64
2021/03/05 11:04:23;;;;;;;54.95;31.35;;;;;;;;;;5072523;28;20028;-63
2021/03/05 11:06:50;;;;;;;46.97;30.55;;;;;;;;;;5085748;28;20115;-63
2021/03/05 11:09:16;;;;;;;51.65;33.25;;;;;;;;;;5073048;28;20023;-63
2021/03/05 11:11:43;;;;;;;57.28;36.05;;;;;;;;;;5072971;28;20078;-63
2021/03/05 11:14:10;;;;;;;60.63;39.47;;;;;;;;;;5072984;28;20028;-64
2021/03/05 11:16:36;;;;;;;62.92;38.47;;;;;;;;;;5073189;28;20436;-63
2021/03/05 11:19:03;;;;;;;53.08;36.83;;;;;;;;;;5073033;28;20044;-64
2021/03/05 11:21:29;;;;;;;56.65;35.50;;;;;;;;;;5071281;28;20020;-63
2021/03/05 11:23:55;;;;;;;59.45;37.33;;;;;;;;;;5057105;28;20028;-64
2021/03/05 11:26:22;;;;;;;56.75;36.28;;;;;;;;;;5056884;28;20075;-64
2021/03/05 11:28:49;;;;;;;71.40;37.58;;;;;;;;;;5056624;28;20040;-64
2021/03/05 11:31:15;;;;;;;55.33;37.60;;;;;;;;;;5056754;28;20037;-64
2021/03/05 11:33:43;;;;;;;57.33;36.92;;;;;;;;;;5056724;28;20033;-64
2021/03/05 11:36:10;;;;;;;60.03;36.97;;;;;;;;;;5056582;28;20477;-64
2021/03/05 11:38:36;;;;;;;62.67;36.40;;;;;;;;;;5056456;28;20037;-64
2021/03/05 11:41:03;;;;;;;55.63;35.70;;;;;;;;;;5057147;28;20028;-64
2021/03/05 11:43:29;;;;;;;53.72;39.47;;;;;;;;;;5056848;28;20037;-64
2021/03/05 11:45:55;;;;;;;61.10;42.72;;;;;;;;;;5078320;28;20046;-63
2021/03/05 11:48:21;;;;;;;66.38;42.70;;;;;;;;;;5077328;28;20443;-64
2021/03/05 11:50:48;;;;;;;67.35;44.15;;;;;;;;;;5082742;28;20443;-64
2021/03/05 11:53:14;;;;;;;71.00;45.15;;;;;;;;;;5075201;28;20044;-63
2021/03/05 11:55:40;;;;;;;61.75;42.75;;;;;;;;;;5076272;28;20412;-64
2021/03/05 11:58:06;;;;;;;63.10;42.55;;;;;;;;;;5076131;28;20036;-64
2021/03/05 12:00:33;;;;;;;71.15;42.90;;;;;;;;;;5076155;28;20028;-65
2021/03/05 12:02:59;;;;;;;64.90;43.53;;;;;;;;;;5076536;28;20039;-65
2021/03/05 12:05:25;;;;;;;69.45;46.25;;;;;;;;;;5076473;28;20099;-65
2021/03/05 12:07:52;;;;;;;64.18;45.20;;;;;;;;;;5076324;28;20032;-64
2021/03/05 12:10:18;;;;;;;62.15;43.88;;;;;;;;;;5076222;28;20028;-64
2021/03/05 12:12:44;;;;;;;66.22;44.78;;;;;;;;;;5076006;28;20024;-65
2021/03/05 12:15:11;;;;;;;65.47;43.80;;;;;;;;;;5076245;28;20465;-64
2021/03/05 12:17:37;;;;;;;68.47;47.13;;;;;;;;;;5092453;28;20153;-64
2021/03/05 12:20:04;;;;;;;75.93;47.15;;;;;;;;;;5096139;28;20024;-65
2021/03/05 12:22:30;;;;;;;80.57;48.13;;;;;;;;;;5096197;28;20028;-64
2021/03/05 12:24:56;;;;;;;74.82;47.63;;;;;;;;;;5096641;28;20027;-65
2021/03/05 12:27:23;;;;;;;75.85;48.38;;;;;;;;;;5096132;28;20108;-65
2021/03/05 12:29:49;;;;;;;75.70;50.00;;;;;;;;;;5096081;28;20434;-64
2021/03/05 12:32:15;;;;;;;81.68;52.33;;;;;;;;;;5095236;28;20073;-64
2021/03/05 12:34:41;;;;;;;85.80;52.20;;;;;;;;;;5095976;28;20059;-65
2021/03/05 12:37:08;;;;;;;83.53;52.40;;;;;;;;;;5095965;28;20107;-65
2021/03/05 12:39:35;;;;;;;72.55;48.45;;;;;;;;;;5094502;28;20043;-64
2021/03/05 12:42:01;;;;;;;77.68;50.92;;;;;;;;;;5095924;28;20027;-64
2021/03/05 12:44:27;;;;;;;72.38;48.92;;;;;;;;;;5088887;28;20028;-64
2021/03/05 12:46:53;;;;;;;74.70;46.25;;;;;;;;;;5063774;28;20040;-65
2021/03/05 12:49:19;;;;;;;68.57;46.00;;;;;;;;;;5055110;28;20032;-65
2021/03/05 12:51:46;;;;;;;69.13;44.00;;;;;;;;;;5065208;28;20025;-64
2021/03/05 12:54:12;;;;;;;70.75;42.20;;;;;;;;;;5075146;28;20091;-64
2021/03/05 12:56:38;;;;;;;62.63;42.90;;;;;;;;;;5060634;28;20039;-64
2021/03/05 12:59:04;;;;;;;63.38;43.50;;;;;;;;;;5054988;28;20080;-64
2021/03/05 13:01:30;;;;;;;68.05;44.05;;;;;;;;;;5055398;28;20025;-63
2021/03/05 13:03:56;;;;;;;67.00;46.60;;;;;;;;;;5055327;28;20417;-63
2021/03/05 13:06:23;;;;;;;71.30;44.45;;;;;;;;;;5055128;28;20066;-64
2021/03/05 13:08:49;;;;;;;65.60;45.20;;;;;;;;;;5055254;28;20390;-64
2021/03/05 13:11:15;;;;;;;66.53;43.83;;;;;;;;;;5070677;22;20452;-63
2021/03/05 13:13:41;;;;;;;66.85;43.88;;;;;;;;;;5040924;28;20032;-62
2021/03/05 13:16:07;;;;;;;71.32;44.45;;;;;;;;;;5052251;28;20108;-63
2021/03/05 13:18:33;;;;;;;67.47;44.58;;;;;;;;;;5050958;28;20033;-64
2021/03/05 13:20:59;;;;;;;67.13;44.03;;;;;;;;;;5052524;28;20025;-63
2021/03/05 13:23:26;;;;;;;66.20;43.22;;;;;;;;;;5052246;28;20501;-63
2021/03/05 13:25:52;;;;;;;75.80;46.20;;;;;;;;;;5051523;28;20075;-63
2021/03/05 13:28:19;;;;;;;65.40;45.53;;;;;;;;;;5052523;28;20097;-63
2021/03/05 13:30:45;;;;;;;75.60;46.10;;;;;;;;;;5052621;28;20060;-62
2021/03/05 13:33:11;;;;;;;69.68;44.03;;;;;;;;;;5052905;28;20104;-63
2021/03/05 13:35:37;;;;;;;71.70;43.63;;;;;;;;;;5052836;28;20024;-63
2021/03/05 13:38:03;;;;;;;72.82;43.70;;;;;;;;;;5052514;28;20029;-63
2021/03/05 13:40:30;;;;;;;65.63;43.40;;;;;;;;;;5052974;28;20462;-63
2021/03/05 13:42:56;;;;;;;68.72;42.35;;;;;;;;;;5052691;28;20463;-63
2021/03/05 13:45:22;;;;;;;67.13;44.08;;;;;;;;;;5052367;28;20021;-63
2021/03/05 13:47:49;;;;;;;65.32;42.85;;;;;;;;;;5052504;28;20033;-63
2021/03/05 13:50:15;;;;;;;67.38;43.40;;;;;;;;;;5052612;28;20049;-63
2021/03/05 13:52:41;;;;;;;67.47;41.33;;;;;;;;;;5052470;28;20389;-63
2021/03/05 13:55:07;;;;;;;65.03;43.47;;;;;;;;;;5052211;28;20028;-63
2021/03/05 13:57:34;;;;;;;64.07;42.25;;;;;;;;;;5052200;28;20421;-63
2021/03/05 14:00:00;;;;;;;67.88;42.08;;;;;;;;;;5052052;28;20025;-64
2021/03/05 14:02:26;;;;;;;67.90;43.35;;;;;;;;;;5052354;28;20040;-64
2021/03/05 14:04:52;;;;;;;68.70;43.67;;;;;;;;;;5052190;28;20029;-64
2021/03/05 14:07:18;;;;;;;64.05;42.05;;;;;;;;;;5052525;28;20351;-63
2021/03/05 14:09:44;;;;;;;66.38;42.53;;;;;;;;;;5051859;28;20037;-64
2021/03/05 14:12:11;;;;;;;74.30;41.58;;;;;;;;;;5051994;28;20084;-63
2021/03/05 14:14:37;;;;;;;70.65;41.88;;;;;;;;;;5052210;28;20380;-63
2021/03/05 14:17:03;;;;;;;68.35;41.78;;;;;;;;;;5052039;28;20045;-63
2021/03/05 14:19:29;;;;;;;76.68;41.53;;;;;;;;;;5051753;28;20039;-63